Time;durP1;ratioP1;P1;durP2;ratioP2;P2;SDS_P1;SDS_P2;PMS_P1;PMS_P2;Temp;Humidity;BMP_temperature;BMP_pressure;BME280_temperature;BME280_humidity;BME280_pressure;Samples;Min_cycle;Max_cycle;Signal;HPM_P1;HPM_P2
2022/06/28 00:01:13;;;;;;;6.90;3.33;;;;;;;18.68;73.83;100525.74;1415512;92;21499;-85
2022/06/28 00:03:39;;;;;;;3.27;2.97;;;;;;;18.63;74.61;100524.16;1407266;92;22312;-85
2022/06/28 00:06:05;;;;;;;9.57;4.40;;;;;;;18.61;74.34;100526.72;1406022;92;22545;-85
2022/06/28 00:08:32;;;;;;;4.03;2.80;;;;;;;18.55;74.97;100522.16;1403700;92;21533;-85
2022/06/28 00:10:58;;;;;;;10.97;3.43;;;;;;;18.48;75.30;100530.98;1399194;92;21900;-82
2022/06/28 00:13:25;;;;;;;5.00;2.53;;;;;;;18.50;75.74;100532.14;1384857;92;21899;-82
2022/06/28 00:16:06;;;;;;;8.70;2.77;;;;;;;18.48;75.97;100530.98;1410516;92;21503;-82
2022/06/28 00:18:38;;;;;;;10.63;2.90;;;;;;;18.43;75.87;100535.28;1390004;93;21465;-83
2022/06/28 00:21:08;;;;;;;3.67;3.27;;;;;;;18.42;74.99;100534.45;1382622;94;21524;-83
2022/06/28 00:23:37;;;;;;;4.42;3.27;;;;;;;18.42;76.24;100537.13;1393502;92;21550;-82
2022/06/28 00:26:05;;;;;;;3.57;2.80;;;;;;;18.40;75.94;100539.69;1414118;92;21407;-82
2022/06/28 00:28:31;;;;;;;5.63;2.80;;;;;;;18.32;76.92;100535.30;1376347;92;21379;-82
2022/06/28 00:30:58;;;;;;;6.97;2.83;;;;;;;18.29;76.33;100538.37;1488918;92;22097;-83
2022/06/28 00:33:28;;;;;;;5.50;3.27;;;;;;;18.30;77.23;100543.22;1489059;92;22074;-84
2022/06/28 00:35:55;;;;;;;5.35;3.08;;;;;;;18.25;77.46;100533.92;1351460;95;21260;-84
2022/06/28 00:38:23;;;;;;;8.30;3.13;;;;;;;18.21;77.12;100536.69;1489079;92;22259;-84
2022/06/28 00:40:52;;;;;;;10.80;3.50;;;;;;;18.16;77.05;100535.09;1491620;92;21429;-84
2022/06/28 00:43:20;;;;;;;7.23;3.00;;;;;;;18.09;76.49;100529.36;1460962;92;22366;-84
2022/06/28 00:45:47;;;;;;;4.37;3.10;;;;;;;18.08;76.48;100530.40;1399421;92;23409;-83
2022/06/28 00:48:17;;;;;;;9.30;3.57;;;;;;;18.04;76.82;100532.13;1383579;92;21585;-84
2022/06/28 00:50:44;;;;;;;7.37;2.90;;;;;;;18.03;76.61;100535.81;1314801;94;21317;-82
2022/06/28 00:53:16;;;;;;;6.10;3.13;;;;;;;18.07;76.19;100528.72;1370753;93;21356;-83
2022/06/28 00:55:44;;;;;;;11.57;2.97;;;;;;;18.07;77.21;100528.72;1401009;92;21341;-82
2022/06/28 00:58:12;;;;;;;4.37;3.23;;;;;;;18.07;77.53;100528.23;1395225;92;21517;-82
2022/06/28 01:00:43;;;;;;;4.37;3.30;;;;;;;18.06;76.96;100528.42;1410615;92;21421;-82
2022/06/28 01:03:12;;;;;;;5.37;3.07;;;;;;;18.04;76.67;100530.79;1404540;92;22368;-82
2022/06/28 01:05:40;;;;;;;7.63;3.23;;;;;;;17.99;76.54;100524.36;1412238;92;23330;-85
2022/06/28 01:08:07;;;;;;;8.73;3.93;;;;;;;17.98;77.25;100524.87;1385718;93;22649;-82
2022/06/28 01:10:35;;;;;;;8.40;3.00;;;;;;;17.99;76.57;100521.16;1390398;94;21452;-83
2022/06/28 01:13:02;;;;;;;7.03;3.27;;;;;;;17.95;77.45;100517.23;1391591;94;21392;-82
2022/06/28 01:15:30;;;;;;;11.50;3.53;;;;;;;17.90;77.46;100513.47;1392954;94;21452;-82
2022/06/28 01:18:01;;;;;;;6.53;4.30;;;;;;;17.85;77.48;100508.69;1387574;93;21519;-83
2022/06/28 01:20:27;;;;;;;6.87;3.75;;;;;;;17.82;77.60;100502.38;1342242;96;21649;-83
2022/06/28 01:22:55;;;;;;;11.80;3.43;;;;;;;17.78;78.65;100501.95;1353659;94;22471;-83
2022/06/28 01:25:24;;;;;;;6.50;3.40;;;;;;;17.75;78.18;100508.14;1350736;95;21633;-83
2022/06/28 01:27:53;;;;;;;6.25;3.30;;;;;;;17.71;78.32;100511.72;1342190;97;21629;-83
2022/06/28 01:30:19;;;;;;;6.83;3.47;;;;;;;17.69;78.46;100516.95;1344788;97;21587;-83
2022/06/28 01:32:46;;;;;;;12.27;5.70;;;;;;;17.73;78.30;100508.34;1348450;96;22437;-82
2022/06/28 01:35:12;;;;;;;7.03;3.83;;;;;;;17.74;78.97;100507.83;1348767;96;21469;-82
2022/06/28 01:37:39;;;;;;;11.07;4.90;;;;;;;17.76;78.68;100517.84;1343306;97;21380;-84
2022/06/28 01:40:06;;;;;;;7.77;4.27;;;;;;;17.79;78.60;100529.54;1352082;97;22367;-84
2022/06/28 01:42:33;;;;;;;13.53;4.50;;;;;;;17.80;78.32;100520.48;1353096;95;21385;-84
2022/06/28 01:45:00;;;;;;;8.73;4.00;;;;;;;17.83;78.30;100517.92;1409359;92;22307;-84
2022/06/28 01:47:29;;;;;;;7.77;4.60;;;;;;;17.82;78.16;100514.43;1387972;94;21442;-83
2022/06/28 01:49:56;;;;;;;11.27;4.10;;;;;;;17.82;78.37;100513.09;1391452;92;21898;-84
2022/06/28 01:52:22;;;;;;;7.17;4.57;;;;;;;17.84;78.20;100514.22;1412778;92;21415;-83
2022/06/28 01:54:48;;;;;;;13.60;4.07;;;;;;;17.86;77.83;100506.83;1399091;92;21398;-84
2022/06/28 01:57:15;;;;;;;7.77;4.23;;;;;;;17.89;77.86;100513.95;1402153;92;22594;-84
2022/06/28 01:59:43;;;;;;;13.23;5.30;;;;;;;17.89;77.94;100514.48;1388458;92;21479;-84
2022/06/28 02:02:09;;;;;;;8.60;4.33;;;;;;;17.85;78.02;100521.25;1403488;91;21436;-82
2022/06/28 02:04:35;;;;;;;6.93;3.93;;;;;;;17.83;77.93;100525.44;1409603;92;21436;-81
2022/06/28 02:07:01;;;;;;;8.97;4.57;;;;;;;17.83;78.21;100525.44;1404113;92;21445;-82
2022/06/28 02:09:27;;;;;;;15.00;4.50;;;;;;;17.83;78.19;100536.15;1410937;92;21584;-81
2022/06/28 02:11:54;;;;;;;9.07;4.87;;;;;;;17.84;78.25;100533.81;1407920;92;21591;-82
2022/06/28 02:14:21;;;;;;;6.13;4.43;;;;;;;17.86;77.76;100530.41;1400631;92;21333;-82
2022/06/28 02:16:47;;;;;;;9.20;4.40;;;;;;;17.88;77.86;100541.77;1404052;92;21342;-83
2022/06/28 02:19:13;;;;;;;12.93;4.17;;;;;;;17.86;77.50;100542.45;1415300;92;21385;-82
2022/06/28 02:21:44;;;;;;;9.43;4.60;;;;;;;17.81;77.62;100540.89;1393348;92;21435;-81
2022/06/28 02:24:11;;;;;;;;;;;;;;;17.76;77.97;100543.28;1394513;92;21354;-81
2022/06/28 02:26:38;;;;;;;8.90;3.83;;;;;;;17.68;78.72;100549.58;1387845;92;20747;-82
2022/06/28 02:29:06;;;;;;;4.77;3.63;;;;;;;17.62;78.29;100544.99;1399928;92;21452;-82
2022/06/28 02:31:32;;;;;;;11.67;4.10;;;;;;;17.55;79.58;100550.77;1396270;92;21647;-79
2022/06/28 02:33:58;;;;;;;10.07;4.93;;;;;;;17.46;80.54;100552.73;1398128;93;21857;-79
2022/06/28 02:41:43;;;;;;;12.53;4.30;;;;;;;17.38;79.62;100543.52;1396537;92;21442;-79
2022/06/28 02:44:09;;;;;;;19.63;4.37;;;;;;;17.39;79.49;100551.03;1384820;92;22226;-79
2022/06/28 02:46:36;;;;;;;12.23;3.80;;;;;;;17.36;79.28;100550.89;1410323;92;21466;-79
2022/06/28 02:49:03;;;;;;;6.53;4.10;;;;;;;17.35;79.65;100551.92;1401623;92;22950;-79
2022/06/28 02:51:29;;;;;;;6.10;4.10;;;;;;;17.36;79.21;100555.73;1398755;92;21550;-79
2022/06/28 02:53:56;;;;;;;7.03;4.20;;;;;;;17.36;79.23;100553.57;1404651;92;21471;-79
2022/06/28 02:56:22;;;;;;;21.30;5.70;;;;;;;17.35;78.79;100551.92;1388254;92;22822;-79
2022/06/28 02:58:49;;;;;;;7.17;3.97;;;;;;;17.34;78.98;100551.58;1385954;92;21435;-80
2022/06/28 03:01:15;;;;;;;7.80;4.40;;;;;;;17.32;79.63;100549.12;1390139;94;21554;-80
2022/06/28 03:03:41;;;;;;;10.63;4.43;;;;;;;17.30;79.53;100556.48;1384046;94;21501;-80
2022/06/28 03:06:07;;;;;;;8.13;4.47;;;;;;;17.28;79.60;100551.83;1398943;92;22227;-80
2022/06/28 03:08:34;;;;;;;7.73;4.23;;;;;;;17.29;79.55;100549.50;1420658;92;21429;-80
2022/06/28 03:11:01;;;;;;;11.73;5.97;;;;;;;17.28;79.62;100555.02;1401042;92;22343;-80
2022/06/28 03:13:27;;;;;;;7.70;4.40;;;;;;;17.28;79.46;100557.17;1402082;92;21910;-80
2022/06/28 03:15:54;;;;;;;15.87;4.87;;;;;;;17.29;80.19;100567.36;1390472;92;21538;-80
2022/06/28 03:18:20;;;;;;;8.30;4.47;;;;;;;17.30;80.08;100566.37;1405612;92;21400;-80
2022/06/28 03:20:46;;;;;;;10.83;4.50;;;;;;;17.34;80.00;100563.63;1410809;92;22398;-80
2022/06/28 03:23:12;;;;;;;15.87;3.93;;;;;;;17.40;80.23;100561.52;1411735;92;21492;-79
2022/06/28 03:25:38;;;;;;;10.80;4.83;;;;;;;17.44;80.11;100553.97;1413856;92;22388;-79
2022/06/28 03:28:05;;;;;;;11.60;4.13;;;;;;;17.48;79.87;100560.08;1399089;92;21481;-79
2022/06/28 03:30:34;;;;;;;7.73;4.80;;;;;;;17.52;79.65;100568.06;1409728;92;21458;-79
2022/06/28 03:33:00;;;;;;;8.17;4.50;;;;;;;17.56;79.40;100572.00;1389338;92;21509;-80
2022/06/28 03:35:26;;;;;;;17.63;5.37;;;;;;;17.62;79.73;100577.62;1392807;92;21375;-81
2022/06/28 03:37:52;;;;;;;17.07;5.70;;;;;;;17.67;80.54;100576.55;1384362;94;21383;-80
2022/06/28 03:40:18;;;;;;;16.93;5.00;;;;;;;17.71;80.94;100588.00;1397287;92;22552;-79
2022/06/28 03:42:44;;;;;;;6.80;4.23;;;;;;;17.78;80.31;100587.61;1408584;92;21430;-80
2022/06/28 03:45:11;;;;;;;13.23;5.13;;;;;;;17.88;79.93;100583.27;1418952;92;21429;-80
2022/06/28 03:47:37;;;;;;;9.93;6.00;;;;;;;18.00;79.43;100596.96;1415079;92;23289;-80
2022/06/28 03:50:04;;;;;;;8.23;5.00;;;;;;;18.10;78.88;100594.80;1397055;92;21619;-79
2022/06/28 03:52:30;;;;;;;10.07;4.63;;;;;;;18.13;79.13;100596.27;1390986;92;22425;-79
2022/06/28 03:54:59;;;;;;;8.07;5.27;;;;;;;18.15;78.22;100593.69;1397367;92;21452;-80
2022/06/28 03:57:27;;;;;;;36.20;6.27;;;;;;;18.20;78.25;100601.16;1410861;92;21444;-80
2022/06/28 03:59:59;;;;;;;12.33;4.80;;;;;;;18.28;78.26;100588.97;1408866;92;21338;-80
2022/06/28 04:02:26;;;;;;;7.87;4.40;;;;;;;18.36;78.25;100592.85;1393770;92;21405;-80
2022/06/28 04:04:52;;;;;;;7.90;4.63;;;;;;;18.45;78.21;100587.66;1403088;92;23479;-80
2022/06/28 04:07:18;;;;;;;11.30;6.03;;;;;;;18.55;78.41;100592.66;1417619;92;21407;-80
2022/06/28 04:09:45;;;;;;;15.40;6.10;;;;;;;18.63;78.13;100594.38;1418503;91;21444;-80
2022/06/28 04:12:11;;;;;;;14.37;5.47;;;;;;;18.73;77.78;100600.22;1400606;92;21479;-80
2022/06/28 04:14:37;;;;;;;10.13;5.07;;;;;;;18.79;77.67;100595.44;1395481;92;21378;-79
2022/06/28 04:17:04;;;;;;;10.23;5.60;;;;;;;18.90;77.68;100592.20;1398165;92;21481;-80
2022/06/28 04:19:30;;;;;;;12.80;4.97;;;;;;;19.00;77.58;100589.67;1413448;92;21377;-79
2022/06/28 04:21:56;;;;;;;11.47;5.17;;;;;;;19.04;77.58;100587.72;1394254;92;21450;-80
2022/06/28 04:24:22;;;;;;;26.83;6.53;;;;;;;19.14;77.27;100586.02;1392560;92;21398;-80
2022/06/28 04:26:48;;;;;;;14.97;5.70;;;;;;;19.21;77.18;100590.89;1405447;92;21427;-80
2022/06/28 04:29:14;;;;;;;11.73;5.93;;;;;;;19.30;76.91;100588.86;1394019;92;21397;-81
2022/06/28 04:31:41;;;;;;;15.60;6.10;;;;;;;19.37;76.39;100587.86;1401237;92;22664;-80
2022/06/28 04:34:07;;;;;;;16.10;6.05;;;;;;;19.50;76.31;100587.58;1417888;92;21436;-79
2022/06/28 04:36:33;;;;;;;9.00;5.07;;;;;;;19.64;76.24;100594.64;1414553;92;21764;-80
2022/06/28 04:38:59;;;;;;;9.00;4.70;;;;;;;19.71;75.80;100600.91;1392751;92;21853;-80
2022/06/28 04:41:25;;;;;;;9.13;5.22;;;;;;;19.79;75.52;100599.37;1388031;92;21413;-79
2022/06/28 04:43:53;;;;;;;7.83;5.55;;;;;;;19.92;75.19;100601.76;1388195;94;21524;-80
2022/06/28 04:46:21;;;;;;;13.83;5.87;;;;;;;20.02;75.15;100594.11;1395098;92;21399;-81
2022/06/28 04:48:48;;;;;;;12.15;5.47;;;;;;;20.12;74.44;100597.75;1412316;92;22369;-80
2022/06/28 04:51:15;;;;;;;9.18;5.58;;;;;;;20.20;74.06;100602.92;1415227;92;21598;-81
2022/06/28 04:53:44;;;;;;;16.23;5.92;;;;;;;20.27;74.29;100599.70;1417960;92;21371;-80
2022/06/28 04:56:11;;;;;;;7.95;5.10;;;;;;;20.39;74.51;100609.31;1410482;92;21304;-80
2022/06/28 04:58:37;;;;;;;10.58;6.65;;;;;;;20.52;74.15;100607.97;1417229;92;22264;-81
2022/06/28 05:01:03;;;;;;;10.48;5.10;;;;;;;20.60;73.38;100610.48;1407808;92;21406;-80
2022/06/28 05:03:30;;;;;;;8.50;5.83;;;;;;;20.68;72.98;100611.58;1398273;92;21510;-81
2022/06/28 05:05:56;;;;;;;6.95;5.40;;;;;;;20.79;72.77;100625.44;1380071;92;21460;-80
2022/06/28 05:08:22;;;;;;;6.87;5.40;;;;;;;20.93;72.59;100628.41;1411294;92;21360;-80
2022/06/28 05:10:49;;;;;;;9.83;6.53;;;;;;;21.02;72.10;100625.79;1402371;92;22359;-81
2022/06/28 05:13:15;;;;;;;11.57;7.05;;;;;;;21.12;71.65;100628.88;1398219;92;21481;-81
2022/06/28 05:15:41;;;;;;;8.48;4.92;;;;;;;21.24;71.22;100632.25;1396553;92;21382;-82
2022/06/28 05:18:07;;;;;;;7.92;5.35;;;;;;;21.30;69.79;100625.48;1396296;92;21701;-81
2022/06/28 05:20:34;;;;;;;6.03;5.33;;;;;;;21.42;70.10;100627.55;1390042;91;21569;-81
2022/06/28 05:23:00;;;;;;;11.97;5.25;;;;;;;21.54;69.74;100627.98;1407133;92;21459;-81
2022/06/28 05:25:26;;;;;;;8.60;5.30;;;;;;;21.63;69.33;100625.34;1386109;92;21405;-76
2022/06/28 05:27:52;;;;;;;9.73;5.60;;;;;;;21.79;69.42;100627.25;1390285;92;21363;-81
2022/06/28 05:30:19;;;;;;;17.17;5.40;;;;;;;21.88;68.36;100619.73;1415225;92;21496;-81
2022/06/28 05:32:45;;;;;;;8.83;5.70;;;;;;;22.02;68.30;100611.86;1401895;92;21574;-79
2022/06/28 05:35:11;;;;;;;10.95;6.25;;;;;;;22.16;67.85;100610.72;1392766;92;21597;-80
2022/06/28 05:37:37;;;;;;;17.10;5.42;;;;;;;22.24;67.48;100605.09;1385519;94;21589;-77
2022/06/28 05:40:04;;;;;;;11.83;5.83;;;;;;;22.41;67.62;100601.32;1388616;92;22831;-77
2022/06/28 05:42:30;;;;;;;9.43;5.03;;;;;;;22.55;67.16;100590.39;1397572;92;21565;-77
2022/06/28 05:44:56;;;;;;;11.78;6.55;;;;;;;22.64;66.50;100584.50;1413708;92;22502;-77
2022/06/28 05:47:22;;;;;;;12.37;5.20;;;;;;;22.79;66.54;100581.44;1407414;92;21471;-76
2022/06/28 05:49:49;;;;;;;6.75;5.67;;;;;;;22.92;65.92;100579.92;1387277;92;21524;-77
2022/06/28 05:52:24;;;;;;;8.58;5.10;;;;;;;23.11;66.11;100575.91;1380830;94;21444;-77
2022/06/28 05:54:50;;;;;;;5.60;4.92;;;;;;;23.27;65.62;100582.02;1391606;94;22227;-77
2022/06/28 05:57:16;;;;;;;10.28;5.60;;;;;;;23.42;64.49;100581.11;1384787;94;21419;-78
2022/06/28 05:59:43;;;;;;;8.05;4.87;;;;;;;23.59;63.92;100593.95;1393230;94;21361;-76
2022/06/28 06:02:09;;;;;;;7.37;5.42;;;;;;;23.72;63.15;100596.50;1389192;94;21376;-77
2022/06/28 06:04:35;;;;;;;9.48;5.03;;;;;;;23.86;62.65;100597.95;1380832;94;21607;-77
2022/06/28 06:07:01;;;;;;;11.22;4.62;;;;;;;23.96;60.82;100600.61;1382678;92;21427;-79
2022/06/28 06:09:27;;;;;;;10.93;4.60;;;;;;;24.08;61.57;100603.66;1415626;92;22421;-79
2022/06/28 06:11:53;;;;;;;5.97;4.50;;;;;;;24.24;61.04;100606.19;1394321;94;21413;-79
2022/06/28 06:14:21;;;;;;;9.40;4.67;;;;;;;24.41;60.55;100607.67;1394469;92;21427;-79
2022/06/28 06:16:50;;;;;;;8.63;4.20;;;;;;;24.56;59.83;100607.23;1393263;92;22359;-80
2022/06/28 06:19:15;;;;;;;8.70;4.00;;;;;;;24.66;58.55;100612.89;1389787;92;22373;-80
2022/06/28 06:21:41;;;;;;;10.63;4.25;;;;;;;24.66;58.63;100616.95;1390638;92;21398;-79
2022/06/28 06:24:08;;;;;;;11.18;4.22;;;;;;;24.78;58.30;100625.06;1398154;94;21435;-80
2022/06/28 06:26:34;;;;;;;11.08;4.20;;;;;;;24.81;56.65;100626.47;1411219;92;21421;-79
2022/06/28 06:29:01;;;;;;;10.03;4.50;;;;;;;25.01;58.00;100638.28;1391884;93;22432;-79
2022/06/28 06:31:28;;;;;;;23.50;5.05;;;;;;;25.20;58.20;100643.33;1382206;93;22535;-79
2022/06/28 06:33:55;;;;;;;9.55;4.45;;;;;;;25.37;57.51;100647.44;1388470;94;21658;-79
2022/06/28 06:36:22;;;;;;;11.25;4.37;;;;;;;25.53;57.31;100650.48;1389953;92;21362;-80
2022/06/28 06:38:49;;;;;;;11.53;4.30;;;;;;;25.62;55.49;100645.77;1461459;94;21244;-79
2022/06/28 06:41:17;;;;;;;10.13;3.98;;;;;;;25.74;55.76;100645.72;1465352;92;21318;-80
2022/06/28 06:43:43;;;;;;;14.20;4.00;;;;;;;25.84;55.55;100641.89;1479610;92;21283;-80
2022/06/28 06:46:13;;;;;;;9.73;4.22;;;;;;;25.99;55.52;100649.47;1489510;92;21393;-80
2022/06/28 06:48:40;;;;;;;5.92;3.47;;;;;;;26.09;54.94;100645.56;1485204;92;21274;-79
2022/06/28 06:51:06;;;;;;;9.50;4.17;;;;;;;26.24;54.83;100650.95;1326396;94;21265;-80
2022/06/28 06:53:33;;;;;;;11.80;3.98;;;;;;;26.24;53.47;100650.95;1463695;92;21357;-79
2022/06/28 06:55:59;;;;;;;6.85;3.90;;;;;;;26.35;53.69;100647.34;1481320;92;21289;-79
2022/06/28 06:58:25;;;;;;;4.80;3.27;;;;;;;26.51;53.66;100646.55;1489123;92;21216;-79
2022/06/28 07:00:52;;;;;;;12.28;4.55;;;;;;;26.66;52.93;100643.24;1399585;92;21376;-80
2022/06/28 07:03:19;;;;;;;14.73;4.08;;;;;;;26.82;53.20;100644.30;1479293;92;22320;-80
2022/06/28 07:05:47;;;;;;;9.35;3.60;;;;;;;26.88;52.67;100641.94;1471686;92;21311;-80
2022/06/28 07:08:13;;;;;;;9.13;3.58;;;;;;;27.06;52.54;100642.71;1479517;92;21150;-79
2022/06/28 07:10:41;;;;;;;5.75;3.58;;;;;;;27.24;52.72;100636.98;1374137;92;21438;-80
2022/06/28 07:13:10;;;;;;;9.53;4.08;;;;;;;27.35;51.05;100633.31;1465224;94;21443;-79
2022/06/28 07:15:36;;;;;;;7.05;3.62;;;;;;;27.48;51.62;100629.91;1466267;92;21354;-79
2022/06/28 07:18:04;;;;;;;10.23;4.35;;;;;;;27.65;51.45;100640.19;1465495;92;21295;-80
2022/06/28 07:20:31;;;;;;;9.45;3.60;;;;;;;27.81;50.88;100629.77;1466014;92;21324;-79
2022/06/28 07:22:58;;;;;;;16.30;4.45;;;;;;;28.00;50.35;100634.84;1464921;94;21224;-79
2022/06/28 07:25:26;;;;;;;6.80;3.67;;;;;;;28.19;50.17;100633.36;1425899;92;21297;-80
2022/06/28 07:27:52;;;;;;;8.40;3.33;;;;;;;28.17;47.74;100636.90;1484337;92;21229;-80
2022/06/28 07:30:19;;;;;;;7.08;3.30;;;;;;;28.08;48.55;100633.84;1368676;94;21332;-79
2022/06/28 07:32:46;;;;;;;5.83;3.22;;;;;;;28.00;48.32;100632.12;1480847;92;21202;-80
2022/06/28 07:35:13;;;;;;;7.75;3.40;;;;;;;28.05;48.24;100637.08;1489297;92;21489;-79
2022/06/28 07:37:46;;;;;;;4.37;3.08;;;;;;;28.21;48.71;100639.38;1489241;92;21157;-80
2022/06/28 07:40:19;;;;;;;6.10;3.40;;;;;;;28.27;47.83;100645.12;1489585;92;21215;-79
2022/06/28 07:42:45;;;;;;;12.33;3.27;;;;;;;28.37;47.32;100646.28;1473330;92;21423;-80
2022/06/28 07:45:11;;;;;;;9.93;2.55;;;;;;;28.51;46.98;100648.88;1489563;92;21291;-79
2022/06/28 07:47:37;;;;;;;4.00;2.42;;;;;;;28.66;45.98;100638.11;1476198;92;21324;-79
2022/06/28 07:52:49;;;;;;;9.55;2.77;;;;;;;28.86;44.25;100621.58;1489325;92;21261;-79
2022/06/28 07:55:15;;;;;;;4.42;2.77;;;;;;;29.01;44.36;100621.67;1392897;92;21238;-79
2022/06/28 07:57:41;;;;;;;13.72;3.87;;;;;;;29.07;43.64;100612.47;1475560;92;21198;-79
2022/06/28 08:00:19;;;;;;;4.83;2.98;;;;;;;29.16;44.31;100605.95;1331608;94;21324;-80
2022/06/28 08:02:57;;;;;;;6.08;3.27;;;;;;;29.22;43.07;100604.34;1471591;92;21282;-81
2022/06/28 08:05:23;;;;;;;3.35;2.60;;;;;;;29.32;43.09;100602.72;1487555;92;21357;-80
2022/06/28 08:07:52;;;;;;;7.10;3.47;;;;;;;29.40;43.07;100599.48;1394855;92;21519;-79
2022/06/28 08:10:18;;;;;;;6.78;3.00;;;;;;;29.58;43.57;100597.63;1398529;92;21333;-80
2022/06/28 08:12:45;;;;;;;3.45;2.77;;;;;;;29.76;42.92;100596.86;1341752;92;21260;-80
2022/06/28 08:15:14;;;;;;;5.60;2.45;;;;;;;29.91;42.76;100594.95;1474798;92;21422;-80
2022/06/28 08:17:41;;;;;;;9.65;3.65;;;;;;;29.99;42.33;100595.52;1489146;92;21216;-80
2022/06/28 08:20:23;;;;;;;6.33;2.45;;;;;;;30.04;42.33;100592.24;1397377;92;22131;-80
2022/06/28 08:22:50;;;;;;;7.70;3.22;;;;;;;30.17;41.98;100588.67;1345055;92;21328;-80
2022/06/28 08:25:16;;;;;;;5.30;3.25;;;;;;;30.29;41.69;100584.59;1320282;94;21296;-80
2022/06/28 08:27:42;;;;;;;5.30;2.80;;;;;;;30.43;41.62;100578.02;1439028;92;21443;-80
2022/06/28 08:30:09;;;;;;;8.10;2.85;;;;;;;30.54;41.56;100575.53;1403199;92;22409;-80
2022/06/28 08:32:37;;;;;;;4.45;3.20;;;;;;;30.70;41.71;100582.31;1481439;92;21302;-80
2022/06/28 08:35:05;;;;;;;5.37;2.98;;;;;;;30.84;41.62;100582.02;1465343;92;21236;-79
2022/06/28 08:37:32;;;;;;;10.82;2.72;;;;;;;30.98;41.24;100580.32;1346214;94;21238;-80
2022/06/28 08:39:58;;;;;;;9.88;2.52;;;;;;;31.10;40.58;100577.81;1489735;92;21289;-79
2022/06/28 08:42:30;;;;;;;4.15;3.17;;;;;;;31.21;39.70;100568.45;1489218;92;21385;-80
2022/06/28 08:45:01;;;;;;;4.15;2.80;;;;;;;31.28;39.37;100564.07;1401945;92;22355;-81
2022/06/28 08:47:32;;;;;;;6.37;2.52;;;;;;;31.33;38.82;100556.63;1475502;92;21244;-80
2022/06/28 08:50:10;;;;;;;4.22;2.42;;;;;;;31.34;38.24;100558.28;1382823;92;22737;-80
2022/06/28 08:52:36;;;;;;;5.83;2.20;;;;;;;31.40;38.49;100546.79;1465235;92;22337;-80
2022/06/28 08:55:06;;;;;;;7.53;2.40;;;;;;;31.47;38.50;100543.98;1477545;92;21201;-80
2022/06/28 08:57:35;;;;;;;5.75;2.15;;;;;;;31.57;37.81;100534.09;1389038;92;21469;-80
2022/06/28 09:00:19;;;;;;;4.13;1.73;;;;;;;31.67;37.37;100528.53;1415866;92;22414;-80
2022/06/28 09:02:47;;;;;;;3.27;1.45;;;;;;;31.77;37.07;100520.25;1461876;92;21265;-80
2022/06/28 09:05:15;;;;;;;6.80;2.05;;;;;;;31.93;36.94;100518.77;1465035;92;22220;-79
2022/06/28 09:07:44;;;;;;;5.42;1.70;;;;;;;32.05;36.82;100515.08;1489595;92;21209;-80
2022/06/28 09:10:09;;;;;;;6.55;2.30;;;;;;;32.17;36.66;100519.63;1401368;92;21375;-79
2022/06/28 09:12:36;;;;;;;3.65;2.10;;;;;;;32.19;36.17;100513.29;1465208;94;21163;-80
2022/06/28 09:15:04;;;;;;;4.25;1.90;;;;;;;32.21;34.03;100513.02;1334246;94;21468;-80
2022/06/28 09:17:33;;;;;;;6.10;2.30;;;;;;;32.16;34.74;100519.91;1476287;92;21257;-79
2022/06/28 09:20:09;;;;;;;4.30;2.00;;;;;;;32.34;35.25;100520.52;1474438;92;21440;-80
2022/06/28 09:22:42;;;;;;;4.30;1.98;;;;;;;32.16;34.27;100517.98;1468581;92;21243;-78
2022/06/28 09:25:15;;;;;;;7.15;2.22;;;;;;;32.23;35.50;100522.57;1479951;92;21266;-79
2022/06/28 09:27:43;;;;;;;6.60;2.30;;;;;;;32.40;35.22;100515.80;1327432;93;21458;-78
2022/06/28 09:30:13;;;;;;;3.72;2.37;;;;;;;32.55;34.84;100515.11;1431618;92;22592;-79
2022/06/28 09:32:46;;;;;;;;;;;;;;;32.63;33.63;100512.30;1488721;92;21431;-79
2022/06/28 09:35:26;;;;;;;3.30;2.20;;;;;;;32.63;33.51;100515.03;1481198;92;20251;-79
2022/06/28 09:37:53;;;;;;;8.48;2.58;;;;;;;32.68;34.36;100508.66;1481930;92;21379;-80
2022/06/28 09:40:31;;;;;;;3.92;2.08;;;;;;;32.77;33.90;100504.98;1319957;93;21444;-80
2022/06/28 09:43:13;;;;;;;3.77;2.05;;;;;;;32.75;33.43;100495.42;1408270;94;21439;-78
2022/06/28 09:45:46;;;;;;;13.15;2.05;;;;;;;32.83;33.60;100495.30;1488843;92;21149;-79
2022/06/28 09:48:17;;;;;;;3.70;1.40;;;;;;;33.03;33.50;100490.94;1410072;92;21354;-80
2022/06/28 09:50:44;;;;;;;4.03;1.87;;;;;;;33.11;31.74;100497.69;1355204;92;22802;-80
2022/06/28 09:53:17;;;;;;;3.50;1.92;;;;;;;33.24;32.30;100495.02;1468814;92;21375;-80
2022/06/28 09:55:44;;;;;;;3.15;1.95;;;;;;;33.36;32.14;100494.56;1466640;92;21584;-80
2022/06/28 09:58:12;;;;;;;4.42;2.08;;;;;;;33.54;32.34;100497.59;1478956;92;21369;-80
2022/06/28 10:00:41;;;;;;;4.58;2.40;;;;;;;33.68;31.94;100499.83;1477675;92;21308;-82
2022/06/28 10:03:09;;;;;;;4.33;1.82;;;;;;;33.80;31.66;100504.27;1465184;92;22628;-80
2022/06/28 10:05:35;;;;;;;7.65;1.90;;;;;;;33.80;30.68;100493.30;1478328;92;21283;-80
2022/06/28 10:08:02;;;;;;;5.67;1.70;;;;;;;33.81;30.95;100501.00;1488208;92;21223;-80
2022/06/28 10:10:28;;;;;;;4.62;2.42;;;;;;;33.88;31.62;100504.95;1377743;92;22168;-80
2022/06/28 10:15:50;;;;;;;4.37;1.70;;;;;;;33.75;30.06;100500.80;1449976;92;21266;-81
2022/06/28 10:18:35;;;;;;;9.43;1.50;;;;;;;33.91;30.44;100500.23;1468666;92;22212;-80
2022/06/28 10:21:02;;;;;;;2.65;1.85;;;;;;;34.07;29.96;100502.75;1494331;92;21282;-80
2022/06/28 10:23:43;;;;;;;5.42;1.92;;;;;;;34.21;29.20;100497.25;1471054;92;21228;-80
2022/06/28 10:26:18;;;;;;;22.30;2.95;;;;;;;34.31;28.90;100499.80;1449378;93;22073;-80
2022/06/28 10:29:07;;;;;;;3.85;2.67;;;;;;;34.32;28.70;100491.81;1476464;91;21295;-80
2022/06/28 10:31:45;;;;;;;4.72;2.00;;;;;;;34.41;29.02;100495.47;1322489;94;21369;-79
2022/06/28 10:34:19;;;;;;;4.13;2.13;;;;;;;34.32;28.95;100491.81;1404494;92;21673;-79
2022/06/28 10:36:56;;;;;;;7.03;2.60;;;;;;;34.48;29.56;100486.27;1381568;92;21383;-79
2022/06/28 10:39:29;;;;;;;4.55;1.50;;;;;;;34.55;28.87;100488.06;1396438;92;21494;-81
2022/06/28 10:42:07;;;;;;;2.15;1.60;;;;;;;34.62;28.69;100489.04;1386323;94;22586;-80
2022/06/28 10:44:40;;;;;;;2.87;1.90;;;;;;;34.68;28.06;100487.00;1373929;93;21371;-79
2022/06/28 10:47:13;;;;;;;5.67;2.00;;;;;;;34.68;28.17;100482.31;1397862;93;22564;-79
2022/06/28 10:49:56;;;;;;;6.05;2.02;;;;;;;34.74;28.24;100490.69;1415181;93;21354;-79
2022/06/28 10:52:34;;;;;;;6.58;1.75;;;;;;;34.85;28.26;100491.29;1319119;94;21469;-79
2022/06/28 10:55:06;;;;;;;7.80;1.67;;;;;;;34.54;26.15;100487.78;1446909;94;21575;-77
2022/06/28 10:57:40;;;;;;;6.37;1.98;;;;;;;34.55;28.35;100482.56;1402950;92;22368;-77
2022/06/28 11:00:24;;;;;;;7.10;1.50;;;;;;;34.63;28.35;100487.91;1393444;91;21509;-81
2022/06/28 11:02:56;;;;;;;9.83;2.37;;;;;;;34.77;27.83;100481.02;1397255;94;22425;-85
2022/06/28 11:05:46;;;;;;;4.37;1.80;;;;;;;34.93;28.47;100474.60;1373110;94;21533;-85
2022/06/28 11:08:32;;;;;;;5.20;2.30;;;;;;;35.11;27.16;100475.05;1365180;96;21430;-86
2022/06/28 11:11:04;;;;;;;2.70;1.95;;;;;;;35.01;26.60;100480.75;1371729;92;21526;-86
2022/06/28 11:13:30;;;;;;;6.95;1.90;;;;;;;35.23;27.64;100483.55;1393000;93;21535;-85
2022/06/28 11:15:58;;;;;;;5.92;2.20;;;;;;;35.31;26.60;100480.63;1405379;92;21544;-86
2022/06/28 11:18:24;;;;;;;3.98;2.58;;;;;;;35.36;26.66;100475.01;1404359;92;21349;-85
2022/06/28 11:20:53;;;;;;;6.33;1.75;;;;;;;35.37;26.94;100473.06;1377894;94;21371;-87
2022/06/28 11:23:27;;;;;;;3.45;2.58;;;;;;;35.29;26.46;100475.99;1412455;92;21583;-85
2022/06/28 11:28:59;;;;;;;4.95;2.10;;;;;;;35.32;26.66;100473.18;1376041;93;21380;-85
2022/06/28 11:31:32;;;;;;;24.67;2.95;;;;;;;35.35;26.79;100467.86;1393840;92;22469;-86
2022/06/28 11:33:59;;;;;;;6.65;2.15;;;;;;;35.58;27.12;100461.00;1391445;93;21565;-86
2022/06/28 11:36:30;;;;;;;6.75;2.17;;;;;;;35.83;27.15;100471.34;1389879;94;21478;-87
2022/06/28 11:39:21;;;;;;;2.80;2.15;;;;;;;35.83;25.36;100469.16;1386982;93;21457;-86
2022/06/28 11:41:52;;;;;;;3.00;2.10;;;;;;;35.95;26.91;100460.30;1375561;94;21457;-86
2022/06/28 11:44:21;;;;;;;4.92;1.92;;;;;;;36.03;26.52;100455.41;1393527;92;21464;-86